Fish Creek, WI (54212)

6:31 PM CDT on September 26, 2016 (GMT -0500)
Door County, Wisconsin, Spring Road | | Change Station

Elev 627 ft 45.12 °N, 87.23 °W | Updated 27 seconds ago

Overcast
Overcast
58.1 °F
Feels Like 58.1 °F
N
2.0
Wind Variable Wind from SW
Gusts 2.5 mph

Today
High -- | Low -- °F
--% Chance of Precip.
Yesterday
High -- | Low -- °F
Precip. -- in
Pressure 29.82 in
Visibility 10.0 miles
Clouds Mostly Cloudy 4800 ft
Overcast 5500 ft
Dew Point 47 °F
Humidity 67%
Rainfall 0.00 in
Snow Depth Not available.
6:41 AM 6:37 PM
Waning Crescent, 15% visible
METAR KMNM 262256Z AUTO 27008G17KT 240V310 10SM BKN048 OVC055 14/06 A2976 RMK AO2 RAB00E41 SLP098 P0000 T01390061 TSNO
Pressure 29.82 in
Visibility 10.0 miles
Clouds Mostly Cloudy 4800 ft
Overcast 5500 ft
Dew Point 47 °F
Humidity 67%
Rainfall 0.00 in
Snow Depth Not available.
6:41 AM 6:37 PM
Waning Crescent, 15% visible
METAR KMNM 262256Z AUTO 27008G17KT 240V310 10SM BKN048 OVC055 14/06 A2976 RMK AO2 RAB00E41 SLP098 P0000 T01390061 TSNO

10-Day Weather Forecast

Almanac

Astronomy

Sep. 26, 2016 Rise Set
Actual Time
Civil Twilight
Nautical Twilight
Astronomical Twilight
Moon
Length of Visible Light
Length of Day
Tomorrow will be .
, % of the Moon is Illuminated

Today's Extremes

State Highs State Lows

Community

WunderPhotos

Upload Photos

1,941,987 photos uploaded!

WunderBlog® & News

Nearby

Air Quality

  Air Quality AQ Index Pollutant
Not available.

Snow Depth

Station Depth Elevation

Earthquake Activity

City Distance Mag. Time & Date
Minimum magnitude displayed is 2.5.

Coastal Water Temperatures

Place Temperature

Stations

Nearby Weather Stations

Station Location Temp. Windchill Dew Point Humidity Wind Precip. Elev Updated Type
                   

Watches & Warnings

There are currently no watches in effect.